createdAt,value
2023-05-08T00:00:41.917Z,21.58
2023-05-08T00:01:55.025Z,21.58
2023-05-08T00:03:07.833Z,21.57
2023-05-08T00:04:11.848Z,21.55
2023-05-08T00:05:24.466Z,21.57
2023-05-08T00:06:37.544Z,21.57
2023-05-08T00:07:40.184Z,21.55
2023-05-08T00:08:53.529Z,21.55
2023-05-08T00:10:05.832Z,21.55
2023-05-08T00:11:19.025Z,21.54
2023-05-08T00:12:21.584Z,21.55
2023-05-08T00:13:34.516Z,21.54
2023-05-08T00:14:46.811Z,21.54
2023-05-08T00:16:10.044Z,21.54
2023-05-08T00:17:02.825Z,21.53
2023-05-08T00:18:16.035Z,21.54
2023-05-08T00:19:18.486Z,21.54
2023-05-08T00:20:31.566Z,21.55
2023-05-08T00:21:43.892Z,21.57
2023-05-08T00:22:57.048Z,21.55
2023-05-08T00:23:59.493Z,21.54
2023-05-08T00:25:12.538Z,21.54
2023-05-08T00:26:24.908Z,21.51
2023-05-08T00:27:28.532Z,21.54
2023-05-08T00:28:40.889Z,21.54
2023-05-08T00:29:54.013Z,21.54
2023-05-08T00:30:56.439Z,21.51
2023-05-08T00:32:09.585Z,21.53
2023-05-08T00:33:22.111Z,21.53
2023-05-08T00:34:35.049Z,21.53
2023-05-08T00:35:37.529Z,21.51
2023-05-08T00:36:50.522Z,21.51
2023-05-08T00:38:02.835Z,21.5
2023-05-08T00:39:16.062Z,21.51
2023-05-08T00:40:18.516Z,21.51
2023-05-08T00:41:31.547Z,21.48
2023-05-08T00:42:43.994Z,21.48
2023-05-08T00:43:47.517Z,21.5
2023-05-08T00:44:59.882Z,21.48
2023-05-08T00:46:13.049Z,21.5
2023-05-08T00:47:15.613Z,21.5
2023-05-08T00:48:28.572Z,21.5
2023-05-08T00:49:40.903Z,21.47
2023-05-08T00:50:54.570Z,21.48
2023-05-08T00:51:56.998Z,21.47
2023-05-08T00:53:10.030Z,21.47
2023-05-08T00:54:22.334Z,21.48
2023-05-08T00:55:25.862Z,21.46
2023-05-08T00:56:38.186Z,21.46
2023-05-08T00:57:51.540Z,21.46
2023-05-08T00:58:53.981Z,21.43
2023-05-08T01:00:27.036Z,21.47
2023-05-08T01:01:19.655Z,21.47
2023-05-08T01:02:33.142Z,21.47
2023-05-08T01:03:35.936Z,21.47
2023-05-08T01:04:49.051Z,21.48
2023-05-08T01:06:01.361Z,21.5
2023-05-08T01:07:04.534Z,21.44
2023-05-08T01:08:16.870Z,21.48
2023-05-08T01:09:40.053Z,21.47
2023-05-08T01:10:32.664Z,21.48
2023-05-08T01:11:46.031Z,21.5
2023-05-08T01:12:58.400Z,21.46
2023-05-08T01:14:12.034Z,21.47
2023-05-08T01:15:14.519Z,21.47
2023-05-08T01:16:28.169Z,21.46
2023-05-08T01:17:30.909Z,21.47
2023-05-08T01:18:44.048Z,21.48
2023-05-08T01:19:56.397Z,21.48
2023-05-08T01:21:09.538Z,21.48
2023-05-08T01:22:11.987Z,21.47
2023-05-08T01:23:25.043Z,21.46
2023-05-08T01:24:37.440Z,21.44
2023-05-08T01:25:40.562Z,21.47
2023-05-08T01:26:52.921Z,21.48
2023-05-08T01:28:06.076Z,21.46
2023-05-08T01:29:18.416Z,21.46
2023-05-08T01:30:21.557Z,21.46
2023-05-08T01:31:33.898Z,21.44
2023-05-08T01:33:07.190Z,21.5
2023-05-08T01:33:50.043Z,21.46
2023-05-08T01:35:02.452Z,21.46
2023-05-08T01:36:15.565Z,21.47
2023-05-08T01:37:27.939Z,21.47
2023-05-08T01:38:31.070Z,21.48
2023-05-08T01:39:43.386Z,21.48
2023-05-08T01:40:56.575Z,21.47
2023-05-08T01:41:59.046Z,21.48
2023-05-08T01:43:12.042Z,21.47
2023-05-08T01:44:24.406Z,21.46
2023-05-08T01:45:37.599Z,21.47
2023-05-08T01:46:40.376Z,21.46
2023-05-08T01:47:53.592Z,21.47
2023-05-08T01:49:06.062Z,21.43
2023-05-08T01:50:09.660Z,21.44
2023-05-08T01:51:22.144Z,21.46
2023-05-08T01:52:35.649Z,21.41
2023-05-08T01:53:38.126Z,21.43
2023-05-08T01:54:51.566Z,21.43
2023-05-08T01:56:03.934Z,21.43
2023-05-08T01:57:17.043Z,21.46
2023-05-08T01:58:19.539Z,21.44
2023-05-08T01:59:32.556Z,21.43
2023-05-08T02:00:45.160Z,21.41
2023-05-08T02:01:48.591Z,21.43
2023-05-08T02:03:01.196Z,21.41
2023-05-08T02:04:14.638Z,21.41
2023-05-08T02:05:17.260Z,21.41
2023-05-08T02:06:30.572Z,21.39
2023-05-08T02:07:42.953Z,21.4
2023-05-08T02:08:46.044Z,21.4
2023-05-08T02:09:58.417Z,21.41
2023-05-08T02:11:11.561Z,21.4
2023-05-08T02:12:23.924Z,21.4
2023-05-08T02:13:27.078Z,21.39
2023-05-08T02:14:39.504Z,21.39
2023-05-08T02:15:52.545Z,21.4
2023-05-08T02:16:55.057Z,21.37
2023-05-08T02:18:08.619Z,21.39
2023-05-08T02:19:21.197Z,21.39
2023-05-08T02:20:24.579Z,21.4
2023-05-08T02:21:37.170Z,21.37
2023-05-08T02:22:50.542Z,21.37
2023-05-08T02:23:53.001Z,21.37
2023-05-08T02:25:06.049Z,21.4
2023-05-08T02:26:18.439Z,21.39
2023-05-08T02:27:31.584Z,21.36
2023-05-08T02:28:34.103Z,21.37
2023-05-08T02:29:47.089Z,21.34
2023-05-08T02:30:59.481Z,21.39
2023-05-08T02:32:02.626Z,21.37
2023-05-08T02:34:51.128Z,21.34
2023-05-08T02:35:32.106Z,21.34
2023-05-08T02:36:44.454Z,21.37
2023-05-08T02:37:57.448Z,21.37
2023-05-08T02:39:09.813Z,21.37
2023-05-08T02:40:13.220Z,21.37
2023-05-08T02:41:25.922Z,21.37
2023-05-08T02:42:38.937Z,21.39
2023-05-08T02:43:41.431Z,21.39
2023-05-08T02:44:54.448Z,21.37
2023-05-08T02:46:06.810Z,21.36
2023-05-08T02:47:10.460Z,21.37
2023-05-08T02:48:22.807Z,21.34
2023-05-08T02:49:35.960Z,21.34
2023-05-08T02:50:38.421Z,21.39
2023-05-08T02:51:51.452Z,21.36
2023-05-08T02:53:03.827Z,21.34
2023-05-08T02:54:16.925Z,21.33
2023-05-08T02:55:19.425Z,21.33
2023-05-08T02:56:32.475Z,21.33
2023-05-08T02:57:44.854Z,21.34
2023-05-08T02:58:47.928Z,21.34
2023-05-08T03:00:00.290Z,21.34
2023-05-08T03:01:13.487Z,21.33
2023-05-08T03:02:16.032Z,21.3
2023-05-08T03:03:29.564Z,21.3
2023-05-08T03:04:42.008Z,21.3
2023-05-08T03:05:45.470Z,21.3
2023-05-08T03:06:57.861Z,21.29
2023-05-08T03:08:10.967Z,21.31
2023-05-08T03:09:13.430Z,21.31
2023-05-08T03:10:26.474Z,21.3
2023-05-08T03:11:38.848Z,21.3
2023-05-08T03:12:51.978Z,21.31
2023-05-08T03:13:54.587Z,21.26
2023-05-08T03:15:07.963Z,21.29
2023-05-08T03:16:20.403Z,21.27
2023-05-08T03:17:23.960Z,21.29
2023-05-08T03:18:36.447Z,21.29
2023-05-08T03:19:49.437Z,21.27
2023-05-08T03:20:51.899Z,21.26
2023-05-08T03:22:05.008Z,21.24
2023-05-08T03:23:31.778Z,21.27
2023-05-08T03:24:24.375Z,21.26
2023-05-08T03:25:37.344Z,21.27
2023-05-08T03:26:39.868Z,21.27
2023-05-08T03:27:52.886Z,21.29
2023-05-08T03:29:05.272Z,21.27
2023-05-08T03:30:18.368Z,21.27
2023-05-08T03:31:20.907Z,21.29
2023-05-08T03:32:34.416Z,21.27
2023-05-08T03:33:47.001Z,21.26
2023-05-08T03:34:50.401Z,21.27
2023-05-08T03:36:02.795Z,21.29
2023-05-08T03:37:15.869Z,21.27
2023-05-08T03:38:18.424Z,21.27
2023-05-08T03:39:31.388Z,21.24
2023-05-08T03:40:43.827Z,21.24
2023-05-08T03:41:56.862Z,21.24
2023-05-08T03:42:59.335Z,21.23
2023-05-08T03:44:12.361Z,21.24
2023-05-08T03:45:24.740Z,21.24
2023-05-08T03:46:27.951Z,21.21
2023-05-08T03:47:41.340Z,21.23
2023-05-08T03:48:55.891Z,21.23
2023-05-08T03:49:58.380Z,21.23
2023-05-08T03:51:11.388Z,21.21
2023-05-08T03:52:23.796Z,21.21
2023-05-08T03:53:27.691Z,21.2
2023-05-08T03:54:40.074Z,21.23
2023-05-08T03:55:53.413Z,21.21
2023-05-08T03:56:55.886Z,21.2
2023-05-08T03:58:08.894Z,21.21
2023-05-08T03:59:21.289Z,21.2
2023-05-08T04:00:34.408Z,21.21
2023-05-08T04:01:36.954Z,21.2
2023-05-08T04:02:50.485Z,21.21
2023-05-08T04:04:03.078Z,21.19
2023-05-08T04:05:06.379Z,21.2
2023-05-08T04:06:18.769Z,21.2
2023-05-08T04:07:31.880Z,21.2
2023-05-08T04:08:34.360Z,21.2
2023-05-08T04:09:47.401Z,21.2
2023-05-08T04:10:59.772Z,21.19
2023-05-08T04:12:12.886Z,21.17
2023-05-08T04:13:15.401Z,21.19
2023-05-08T04:14:28.899Z,21.2
2023-05-08T04:15:41.258Z,21.21
2023-05-08T04:16:44.461Z,21.2
2023-05-08T04:17:57.106Z,21.2
2023-05-08T04:19:10.382Z,21.2
2023-05-08T04:20:12.843Z,21.2
2023-05-08T04:21:25.894Z,21.2
2023-05-08T04:22:38.336Z,21.16
2023-05-08T04:23:41.697Z,21.19
2023-05-08T04:24:54.214Z,21.17
2023-05-08T04:26:07.413Z,21.17
2023-05-08T04:27:19.829Z,21.19
2023-05-08T04:28:22.915Z,21.19
2023-05-08T04:29:35.310Z,21.17
2023-05-08T04:30:48.891Z,21.19
2023-05-08T04:31:51.481Z,21.16
2023-05-08T04:33:04.986Z,21.19
2023-05-08T04:34:17.534Z,21.17
2023-05-08T04:35:21.435Z,21.17
2023-05-08T04:36:33.876Z,21.2
2023-05-08T04:37:46.943Z,21.19
2023-05-08T04:38:49.428Z,21.17
2023-05-08T04:40:02.406Z,21.2
2023-05-08T04:41:14.857Z,21.19
2023-05-08T04:42:18.418Z,21.19
2023-05-08T04:43:30.800Z,21.19
2023-05-08T04:44:43.905Z,21.19
2023-05-08T04:45:56.421Z,21.19
2023-05-08T04:46:59.913Z,21.2
2023-05-08T04:48:12.530Z,21.2
2023-05-08T04:49:25.949Z,21.2
2023-05-08T04:50:28.421Z,21.19
2023-05-08T04:51:41.393Z,21.2
2023-05-08T04:52:53.788Z,21.2
2023-05-08T04:53:56.939Z,21.2
2023-05-08T04:55:09.408Z,21.2
2023-05-08T04:56:22.907Z,21.2
2023-05-08T04:57:25.443Z,21.21
2023-05-08T04:58:38.397Z,21.19
2023-05-08T04:59:50.799Z,21.2
2023-05-08T05:01:03.917Z,21.26
2023-05-08T05:02:06.382Z,21.31
2023-05-08T05:03:19.414Z,21.44
2023-05-08T05:04:31.763Z,21.53
2023-05-08T05:05:35.973Z,21.64
2023-05-08T05:06:49.346Z,21.75
2023-05-08T05:08:02.481Z,21.85
2023-05-08T05:09:05.085Z,21.95
2023-05-08T05:10:17.940Z,22.06
2023-05-08T05:11:30.122Z,22.11
2023-05-08T05:12:42.959Z,22.16
2023-05-08T05:13:45.313Z,22.23
2023-05-08T05:14:58.418Z,22.29
2023-05-08T05:16:10.602Z,22.32
2023-05-08T05:17:13.926Z,22.39
2023-05-08T05:18:26.149Z,22.41
2023-05-08T05:19:38.908Z,22.46
2023-05-08T05:20:41.279Z,22.45
2023-05-08T05:21:54.497Z,22.48
2023-05-08T05:23:06.661Z,22.5
2023-05-08T05:24:19.708Z,22.53
2023-05-08T05:25:23.757Z,22.54
2023-05-08T05:26:36.980Z,22.57
2023-05-08T05:27:49.190Z,22.59
2023-05-08T05:28:52.431Z,22.6
2023-05-08T05:30:04.609Z,22.6
2023-05-08T05:31:17.433Z,22.6
2023-05-08T05:32:19.747Z,22.62
2023-05-08T05:33:32.916Z,22.6
2023-05-08T05:34:45.030Z,22.62
2023-05-08T05:35:57.922Z,22.6
2023-05-08T05:37:00.248Z,22.62
2023-05-08T05:38:12.917Z,22.63
2023-05-08T05:39:25.061Z,22.62
2023-05-08T05:40:27.946Z,22.63
2023-05-08T05:41:40.122Z,22.62
2023-05-08T05:42:52.923Z,22.62
2023-05-08T05:44:05.123Z,22.63
2023-05-08T05:45:08.457Z,22.6
2023-05-08T05:46:20.671Z,22.6
2023-05-08T05:47:33.478Z,22.6
2023-05-08T05:48:35.894Z,22.62
2023-05-08T05:49:48.931Z,22.57
2023-05-08T05:51:01.146Z,22.57
2023-05-08T05:52:13.936Z,22.57
2023-05-08T05:53:16.203Z,22.57
2023-05-08T05:54:28.925Z,22.56
2023-05-08T05:55:41.115Z,22.57
2023-05-08T05:56:53.926Z,22.57
2023-05-08T05:57:56.225Z,22.59
2023-05-08T05:59:09.435Z,22.56
2023-05-08T06:00:21.629Z,22.56
2023-05-08T06:01:24.942Z,22.57
2023-05-08T06:02:37.258Z,22.57
2023-05-08T06:03:50.518Z,22.56
2023-05-08T06:05:02.818Z,22.56
2023-05-08T06:06:05.944Z,22.56
2023-05-08T06:07:18.142Z,22.53
2023-05-08T06:08:30.952Z,22.53
2023-05-08T06:09:33.280Z,22.57
2023-05-08T06:10:46.447Z,22.56
2023-05-08T06:11:58.556Z,22.56
2023-05-08T06:13:11.523Z,22.54
2023-05-08T06:14:13.987Z,22.56
2023-05-08T06:15:26.937Z,22.54
2023-05-08T06:16:39.138Z,22.54
2023-05-08T06:17:42.462Z,22.54
2023-05-08T06:18:54.627Z,22.53
2023-05-08T06:20:07.493Z,22.53
2023-05-08T06:21:19.711Z,22.56
2023-05-08T06:22:22.957Z,22.5
2023-05-08T06:23:35.093Z,22.52
2023-05-08T06:24:47.931Z,22.5
2023-05-08T06:25:50.201Z,22.52
2023-05-08T06:27:03.461Z,22.53
2023-05-08T06:28:15.676Z,22.52
2023-05-08T06:29:28.422Z,22.54
2023-05-08T06:30:30.717Z,22.54
2023-05-08T06:31:43.920Z,22.53
2023-05-08T06:32:56.241Z,22.53
2023-05-08T06:33:59.423Z,22.5
2023-05-08T06:35:11.804Z,22.53
2023-05-08T06:36:24.949Z,22.52
2023-05-08T06:37:37.070Z,22.56
2023-05-08T06:38:39.969Z,22.56
2023-05-08T06:40:03.902Z,22.54
2023-05-08T06:41:04.423Z,22.53
2023-05-08T06:42:16.613Z,22.57
2023-05-08T06:43:19.913Z,22.56
2023-05-08T06:44:32.107Z,22.56
2023-05-08T06:45:44.960Z,22.57
2023-05-08T06:46:47.304Z,22.59
2023-05-08T06:48:00.467Z,22.59
2023-05-08T06:49:12.728Z,22.59
2023-05-08T06:50:25.981Z,22.6
2023-05-08T06:51:28.356Z,22.6
2023-05-08T06:52:41.434Z,22.62
2023-05-08T06:53:54.813Z,22.63
2023-05-08T06:54:57.949Z,22.66
2023-05-08T06:56:10.268Z,22.69
2023-05-08T06:57:22.959Z,22.7
2023-05-08T06:58:25.252Z,22.76
2023-05-08T06:59:37.947Z,22.79
2023-05-08T07:00:50.123Z,22.79
2023-05-08T07:02:03.036Z,22.76
2023-05-08T07:03:05.547Z,22.74
2023-05-08T07:04:18.543Z,22.73
2023-05-08T07:05:30.863Z,22.72
2023-05-08T07:06:33.939Z,22.72
2023-05-08T07:07:46.038Z,22.69
2023-05-08T07:08:58.964Z,22.74
2023-05-08T07:10:11.085Z,22.73
2023-05-08T07:11:13.925Z,22.76
2023-05-08T07:12:26.055Z,22.77
2023-05-08T07:13:38.976Z,22.81
2023-05-08T07:14:41.328Z,22.87
2023-05-08T07:15:54.479Z,22.84
2023-05-08T07:17:06.806Z,22.87
2023-05-08T07:18:19.945Z,22.88
2023-05-08T07:19:22.666Z,22.88
2023-05-08T07:20:35.936Z,22.91
2023-05-08T07:21:48.275Z,22.93
2023-05-08T07:22:51.460Z,22.91
2023-05-08T07:24:03.555Z,22.96
2023-05-08T07:25:16.453Z,22.96
2023-05-08T07:26:28.610Z,22.93
2023-05-08T07:27:31.450Z,22.96
2023-05-08T07:28:43.609Z,22.96
2023-05-08T07:29:56.457Z,22.94
2023-05-08T07:30:58.781Z,22.97
2023-05-08T07:32:11.452Z,22.97
2023-05-08T07:33:23.590Z,22.97
2023-05-08T07:34:36.478Z,22.99
2023-05-08T07:35:38.889Z,23.0
2023-05-08T07:36:52.136Z,22.97
2023-05-08T07:38:04.347Z,22.99
2023-05-08T07:39:07.484Z,22.99
2023-05-08T07:40:19.627Z,22.9
2023-05-08T07:41:32.481Z,22.84
2023-05-08T07:42:44.708Z,22.86
2023-05-08T07:43:47.955Z,22.8
2023-05-08T07:45:00.161Z,22.74
2023-05-08T07:46:12.943Z,22.74
2023-05-08T07:47:15.332Z,22.74
2023-05-08T07:48:28.485Z,22.79
2023-05-08T07:49:40.714Z,22.77
2023-05-08T07:50:53.442Z,22.8
2023-05-08T07:51:55.755Z,22.8
2023-05-08T07:53:28.455Z,22.84
2023-05-08T07:54:20.825Z,22.87
2023-05-08T07:55:23.080Z,22.9
2023-05-08T07:56:35.953Z,22.97
2023-05-08T07:57:49.331Z,22.97
2023-05-08T07:59:02.450Z,23.03
2023-05-08T08:00:04.655Z,23.07
2023-05-08T08:01:17.469Z,23.11
2023-05-08T08:02:29.701Z,23.17
2023-05-08T08:03:42.559Z,23.21
2023-05-08T08:04:44.927Z,23.24
2023-05-08T08:05:57.947Z,23.28
2023-05-08T08:07:10.019Z,23.34
2023-05-08T08:08:12.956Z,23.35
2023-05-08T08:09:25.208Z,23.37
2023-05-08T08:10:38.472Z,23.38
2023-05-08T08:11:40.732Z,23.41
2023-05-08T08:12:53.484Z,23.44
2023-05-08T08:14:05.662Z,23.45
2023-05-08T08:15:18.482Z,23.47
2023-05-08T08:16:20.751Z,23.51
2023-05-08T08:17:33.502Z,23.51
2023-05-08T08:18:45.686Z,23.56
2023-05-08T08:19:48.448Z,23.58
2023-05-08T08:21:00.479Z,23.64
2023-05-08T08:22:13.496Z,23.64
2023-05-08T08:23:25.530Z,23.65
2023-05-08T08:24:28.479Z,23.72
2023-05-08T08:25:40.712Z,23.72
2023-05-08T08:26:53.460Z,23.74
2023-05-08T08:27:55.649Z,23.76
2023-05-08T08:29:10.509Z,23.76
2023-05-08T08:30:22.575Z,23.81
2023-05-08T08:31:25.600Z,23.81
2023-05-08T08:32:37.834Z,23.82
2023-05-08T08:33:50.973Z,23.85
2023-05-08T08:35:03.082Z,23.86
2023-05-08T08:36:05.954Z,23.86
2023-05-08T08:37:18.044Z,23.88
2023-05-08T08:38:31.008Z,23.88
2023-05-08T08:39:33.253Z,23.85
2023-05-08T08:40:46.002Z,23.89
2023-05-08T08:41:58.006Z,23.88
2023-05-08T08:43:10.968Z,23.88
2023-05-08T08:44:13.215Z,23.9
2023-05-08T08:45:26.020Z,23.9
2023-05-08T08:46:38.064Z,23.93
2023-05-08T08:47:51.514Z,23.9
2023-05-08T08:48:53.829Z,23.92
2023-05-08T08:50:06.462Z,23.95
2023-05-08T08:51:19.108Z,23.9
2023-05-08T08:52:22.002Z,23.9
2023-05-08T08:53:34.010Z,23.92
2023-05-08T08:54:47.011Z,23.93
2023-05-08T08:57:15.878Z,23.96
2023-05-08T08:58:18.084Z,23.96
2023-05-08T08:59:21.053Z,23.92
2023-05-08T09:00:33.148Z,23.88
2023-05-08T09:01:46.070Z,23.89
2023-05-08T09:02:58.251Z,23.89
2023-05-08T09:04:01.622Z,23.9
2023-05-08T09:05:14.039Z,23.93
2023-05-08T09:06:27.072Z,23.89
2023-05-08T09:07:29.460Z,23.89
2023-05-08T09:08:42.064Z,23.88
2023-05-08T09:09:54.267Z,23.92
2023-05-08T09:11:07.052Z,23.95
2023-05-08T09:12:09.383Z,23.95
2023-05-08T09:13:22.045Z,23.95
2023-05-08T09:14:34.179Z,23.95
2023-05-08T09:15:37.089Z,23.93
2023-05-08T09:16:49.299Z,23.98
2023-05-08T09:18:02.099Z,23.96
2023-05-08T09:19:14.256Z,23.99
2023-05-08T09:20:17.054Z,24.0
2023-05-08T09:21:29.062Z,23.99
2023-05-08T09:22:42.027Z,23.99
2023-05-08T09:23:54.120Z,23.96
2023-05-08T09:24:57.566Z,23.99
2023-05-08T09:26:09.631Z,23.95
2023-05-08T09:27:22.549Z,23.96
2023-05-08T09:28:24.726Z,23.95
2023-05-08T09:29:37.552Z,23.98
2023-05-08T09:30:49.619Z,23.99
2023-05-08T09:32:02.571Z,23.96
2023-05-08T09:33:04.980Z,23.98
2023-05-08T09:34:18.037Z,23.99
2023-05-08T09:35:30.124Z,24.0
2023-05-08T09:36:43.077Z,24.0
2023-05-08T09:37:45.328Z,24.05
2023-05-08T09:38:58.064Z,24.05
2023-05-08T09:40:10.233Z,24.06
2023-05-08T09:41:13.074Z,24.09
2023-05-08T09:42:25.153Z,24.1
2023-05-08T09:43:38.062Z,24.1
2023-05-08T09:44:50.130Z,24.11
2023-05-08T09:45:53.130Z,24.13
2023-05-08T09:47:05.300Z,24.16
2023-05-08T09:48:18.070Z,24.2
2023-05-08T09:49:30.363Z,24.25
2023-05-08T09:50:33.534Z,24.25
2023-05-08T09:51:45.638Z,24.25
2023-05-08T09:52:58.600Z,24.29
2023-05-08T09:54:01.011Z,24.32
2023-05-08T09:55:14.848Z,24.33
2023-05-08T09:56:28.405Z,24.36
2023-05-08T09:57:31.550Z,24.36
2023-05-08T09:58:43.588Z,24.4
2023-05-08T10:00:16.411Z,24.4
2023-05-08T10:00:59.176Z,24.37
2023-05-08T10:02:11.216Z,24.39
2023-05-08T10:03:24.122Z,24.41
2023-05-08T10:04:36.206Z,24.46
2023-05-08T10:05:39.086Z,24.49
2023-05-08T10:06:51.116Z,24.51
2023-05-08T10:08:04.063Z,24.5
2023-05-08T10:09:06.180Z,24.5
2023-05-08T10:10:19.086Z,24.53
2023-05-08T10:11:31.135Z,24.49
2023-05-08T10:12:44.073Z,24.47
2023-05-08T10:13:46.404Z,24.49
2023-05-08T10:14:59.543Z,24.44
2023-05-08T10:16:11.601Z,24.46
2023-05-08T10:17:24.600Z,24.46
2023-05-08T10:18:26.876Z,24.49
2023-05-08T10:19:39.597Z,24.5
2023-05-08T10:20:51.380Z,24.53
2023-05-08T10:21:54.105Z,24.51
2023-05-08T10:23:06.186Z,24.53
2023-05-08T10:24:19.064Z,24.54
2023-05-08T10:25:31.045Z,24.58
2023-05-08T10:26:34.062Z,24.6
2023-05-08T10:27:46.097Z,24.61
2023-05-08T10:28:59.090Z,24.61
2023-05-08T10:30:11.235Z,24.67
2023-05-08T10:31:14.632Z,24.67
2023-05-08T10:32:26.756Z,24.68
2023-05-08T10:33:39.566Z,24.7
2023-05-08T10:34:41.841Z,24.68
2023-05-08T10:35:54.572Z,24.71
2023-05-08T10:37:06.608Z,24.7
2023-05-08T10:38:19.567Z,24.74
2023-05-08T10:39:21.730Z,24.75
2023-05-08T10:40:34.591Z,24.77
2023-05-08T10:41:46.526Z,24.77
2023-05-08T10:42:49.607Z,24.74
2023-05-08T10:44:03.153Z,24.75
2023-05-08T10:45:16.607Z,24.78
2023-05-08T10:46:18.768Z,24.78
2023-05-08T10:47:31.622Z,24.77
2023-05-08T10:48:43.657Z,24.8
2023-05-08T10:49:56.791Z,24.74
2023-05-08T10:50:59.133Z,24.75
2023-05-08T10:52:12.081Z,24.77
2023-05-08T10:53:24.132Z,24.75
2023-05-08T10:54:27.993Z,24.75
2023-05-08T10:55:41.263Z,24.78
2023-05-08T10:56:54.114Z,24.81
2023-05-08T10:57:56.307Z,24.8
2023-05-08T10:59:09.065Z,24.87
2023-05-08T11:00:21.005Z,24.85
2023-05-08T11:01:33.618Z,24.85
2023-05-08T11:02:36.037Z,24.83
2023-05-08T11:03:49.099Z,24.78
2023-05-08T11:05:01.099Z,24.81
2023-05-08T11:06:04.105Z,24.83
2023-05-08T11:07:16.214Z,24.84
2023-05-08T11:08:29.195Z,24.85
2023-05-08T11:09:41.294Z,24.85
2023-05-08T11:10:44.100Z,24.85
2023-05-08T11:11:56.086Z,24.85
2023-05-08T11:13:09.124Z,24.87
2023-05-08T11:14:11.424Z,24.87
2023-05-08T11:15:24.693Z,24.9
2023-05-08T11:16:37.370Z,24.9
2023-05-08T11:17:50.610Z,24.88
2023-05-08T11:18:52.776Z,24.91
2023-05-08T11:20:05.602Z,24.92
2023-05-08T11:21:17.614Z,24.95
2023-05-08T11:22:20.609Z,24.98
2023-05-08T11:23:32.596Z,25.0
2023-05-08T11:24:45.582Z,25.0
2023-05-08T11:25:57.510Z,25.01
2023-05-08T11:27:00.581Z,25.0
2023-05-08T11:28:12.576Z,25.0
2023-05-08T11:29:25.593Z,24.98
2023-05-08T11:30:27.752Z,24.98
2023-05-08T11:31:40.632Z,24.98
2023-05-08T11:32:52.704Z,25.0
2023-05-08T11:34:06.587Z,24.98
2023-05-08T11:35:08.750Z,25.0
2023-05-08T11:36:21.594Z,25.01
2023-05-08T11:37:33.610Z,25.01
2023-05-08T11:38:36.661Z,25.02
2023-05-08T11:39:48.764Z,25.01
2023-05-08T11:41:01.623Z,25.02
2023-05-08T11:42:13.671Z,25.05
2023-05-08T11:43:16.570Z,25.04
2023-05-08T11:44:28.482Z,25.05
2023-05-08T11:45:41.108Z,25.01
2023-05-08T11:46:43.359Z,25.01
2023-05-08T11:47:56.150Z,24.98
2023-05-08T11:49:08.440Z,24.94
2023-05-08T11:50:21.079Z,24.87
2023-05-08T11:51:23.200Z,24.87
2023-05-08T11:52:36.145Z,24.9
2023-05-08T11:53:48.263Z,24.9
2023-05-08T11:54:51.221Z,24.88
2023-05-08T11:56:03.224Z,24.87
2023-05-08T11:57:16.586Z,24.9
2023-05-08T11:58:28.608Z,24.88
2023-05-08T11:59:31.611Z,24.91
2023-05-08T12:00:43.583Z,24.87
2023-05-08T12:02:07.807Z,24.9
2023-05-08T12:03:01.435Z,24.87
2023-05-08T12:04:14.739Z,24.78
2023-05-08T12:05:26.917Z,24.75
2023-05-08T12:06:30.903Z,24.75
2023-05-08T12:07:42.922Z,24.74
2023-05-08T12:08:55.607Z,24.77
2023-05-08T12:09:57.769Z,24.75
2023-05-08T12:11:10.591Z,24.77
2023-05-08T12:12:22.663Z,24.83
2023-05-08T12:13:35.696Z,24.85
2023-05-08T12:14:38.011Z,24.87
2023-05-08T12:15:50.645Z,24.87
2023-05-08T12:17:02.714Z,24.92
2023-05-08T12:18:05.642Z,24.94
2023-05-08T12:19:17.710Z,24.98
2023-05-08T12:20:32.045Z,25.02
2023-05-08T12:21:35.446Z,25.02
2023-05-08T12:22:48.134Z,25.05
2023-05-08T12:24:00.307Z,25.04
2023-05-08T12:25:03.129Z,25.02
2023-05-08T12:26:15.092Z,25.01
2023-05-08T12:27:28.110Z,25.02
2023-05-08T12:28:40.136Z,25.01
2023-05-08T12:29:43.140Z,25.01
2023-05-08T12:30:55.222Z,25.04
2023-05-08T12:32:08.106Z,25.01
2023-05-08T12:33:20.042Z,24.98
2023-05-08T12:34:23.128Z,24.94
2023-05-08T12:35:35.108Z,24.95
2023-05-08T12:36:48.312Z,24.92
2023-05-08T12:37:50.420Z,24.84
2023-05-08T12:39:03.914Z,24.85
2023-05-08T12:40:16.093Z,24.83
2023-05-08T12:41:19.139Z,24.85
2023-05-08T12:42:31.169Z,24.85
2023-05-08T12:43:44.119Z,24.9
2023-05-08T12:44:56.242Z,24.92
2023-05-08T12:45:59.116Z,24.91
2023-05-08T12:47:11.160Z,24.94
2023-05-08T12:48:24.135Z,24.97
2023-05-08T12:49:36.129Z,25.0
2023-05-08T12:50:39.138Z,25.0
2023-05-08T12:51:51.138Z,25.02
2023-05-08T12:53:04.144Z,25.01
2023-05-08T12:54:06.359Z,25.01
2023-05-08T12:55:19.626Z,25.02
2023-05-08T12:56:31.868Z,25.04
2023-05-08T12:57:44.656Z,25.07
2023-05-08T12:58:46.768Z,25.08
2023-05-08T13:00:02.028Z,25.08
2023-05-08T13:01:05.197Z,25.08
2023-05-08T13:02:18.736Z,25.05
2023-05-08T13:03:30.984Z,25.04
2023-05-08T13:04:34.197Z,25.01
2023-05-08T13:05:46.356Z,25.02
2023-05-08T13:06:59.250Z,25.01
2023-05-08T13:08:11.267Z,25.02
2023-05-08T13:09:14.157Z,25.02
2023-05-08T13:10:27.633Z,25.01
2023-05-08T13:11:40.644Z,25.01
2023-05-08T13:12:42.853Z,25.0
2023-05-08T13:13:55.636Z,25.01
2023-05-08T13:15:07.649Z,25.02
2023-05-08T13:16:20.711Z,25.01
2023-05-08T13:17:23.123Z,25.01
2023-05-08T13:18:36.172Z,25.01
2023-05-08T13:19:48.245Z,25.02
2023-05-08T13:20:51.630Z,25.02
2023-05-08T13:22:03.660Z,25.01
2023-05-08T13:23:16.656Z,25.04
2023-05-08T13:24:28.849Z,25.02
2023-05-08T13:25:41.618Z,25.02
2023-05-08T13:26:43.773Z,25.01
2023-05-08T13:28:16.205Z,25.04
2023-05-08T13:28:59.937Z,25.05
2023-05-08T13:30:12.061Z,25.02
2023-05-08T13:31:25.224Z,25.04
2023-05-08T13:32:27.452Z,25.04
2023-05-08T13:33:40.645Z,25.05
2023-05-08T13:34:55.274Z,25.05
2023-05-08T13:36:01.661Z,25.05
2023-05-08T13:37:13.669Z,25.07
2023-05-08T13:38:16.650Z,25.07
2023-05-08T13:39:28.879Z,25.11
2023-05-08T13:40:41.654Z,25.11
2023-05-08T13:41:53.643Z,25.05
2023-05-08T13:42:56.620Z,25.09
2023-05-08T13:44:08.604Z,25.09
2023-05-08T13:45:21.725Z,25.09
2023-05-08T13:46:33.760Z,25.09
2023-05-08T13:47:36.700Z,25.11
2023-05-08T13:48:48.730Z,25.12
2023-05-08T13:50:11.647Z,25.14
2023-05-08T13:51:04.083Z,25.14
2023-05-08T13:52:16.645Z,25.15
2023-05-08T13:53:28.638Z,25.15
2023-05-08T13:54:41.117Z,25.14
2023-05-08T13:55:43.281Z,25.15
2023-05-08T13:56:56.128Z,25.15
2023-05-08T13:58:08.045Z,25.14
2023-05-08T13:59:20.632Z,25.11
2023-05-08T14:00:22.721Z,25.12
2023-05-08T14:01:35.757Z,25.11
2023-05-08T14:02:50.079Z,25.12
2023-05-08T14:03:54.877Z,25.11
2023-05-08T14:05:07.272Z,25.14
2023-05-08T14:06:20.145Z,25.12
2023-05-08T14:07:22.262Z,25.14
2023-05-08T14:08:40.085Z,25.14
2023-05-08T14:09:47.016Z,25.12
2023-05-08T14:10:50.154Z,25.12
2023-05-08T14:12:02.936Z,25.12
2023-05-08T14:13:15.912Z,25.14
2023-05-08T14:14:18.024Z,25.11
2023-05-08T14:15:37.039Z,25.07
2023-05-08T14:16:39.861Z,25.07
2023-05-08T14:17:52.748Z,25.05
2023-05-08T14:19:04.896Z,25.07
2023-05-08T14:20:09.169Z,25.09
2023-05-08T14:21:24.669Z,25.07
2023-05-08T14:22:27.624Z,25.04
2023-05-08T14:23:39.537Z,25.02
2023-05-08T14:24:52.141Z,25.01
2023-05-08T14:26:04.138Z,25.01
2023-05-08T14:27:07.176Z,24.91
2023-05-08T14:28:19.226Z,24.63
2023-05-08T14:29:32.185Z,24.51
2023-05-08T14:30:34.509Z,24.27
2023-05-08T14:31:47.721Z,24.07
2023-05-08T14:32:59.869Z,23.95
2023-05-08T14:34:14.000Z,23.89
2023-05-08T14:35:16.361Z,23.76
2023-05-08T14:36:30.161Z,23.44
2023-05-08T14:37:42.335Z,23.2
2023-05-08T14:38:45.680Z,22.96
2023-05-08T14:39:57.870Z,22.73
2023-05-08T14:41:10.651Z,22.57
2023-05-08T14:42:21.607Z,22.42
2023-05-08T14:43:26.197Z,22.33
2023-05-08T14:44:38.553Z,22.16
2023-05-08T14:45:51.696Z,21.99
2023-05-08T14:46:54.134Z,21.92
2023-05-08T14:48:07.241Z,21.82
2023-05-08T14:49:32.746Z,21.78
2023-05-08T14:50:30.661Z,21.71
2023-05-08T14:51:33.015Z,21.7
2023-05-08T14:52:46.191Z,21.61
2023-05-08T14:53:58.588Z,21.5
2023-05-08T14:55:02.366Z,21.44
2023-05-08T14:56:15.166Z,21.36
2023-05-08T14:57:28.691Z,21.24
2023-05-08T14:58:31.090Z,21.16
2023-05-08T14:59:54.171Z,21.17
2023-05-08T15:00:57.706Z,21.16
2023-05-08T15:02:10.728Z,21.16
2023-05-08T15:03:13.308Z,21.16
2023-05-08T15:04:26.715Z,21.16
2023-05-08T15:05:39.022Z,21.06